sensor_id;sensor_type;location;lat;lon;timestamp;temperature;humidity
41116;DHT22;26861;51.824;4.682;2024-02-28T00:01:19;15.80;64.40
41116;DHT22;26861;51.824;4.682;2024-02-28T00:03:45;15.90;64.80
41116;DHT22;26861;51.824;4.682;2024-02-28T00:06:10;15.90;64.90
41116;DHT22;26861;51.824;4.682;2024-02-28T00:08:35;15.70;64.70
41116;DHT22;26861;51.824;4.682;2024-02-28T00:11:01;15.80;65.00
41116;DHT22;26861;51.824;4.682;2024-02-28T00:13:27;15.90;64.80
41116;DHT22;26861;51.824;4.682;2024-02-28T00:15:52;15.80;65.00
41116;DHT22;26861;51.824;4.682;2024-02-28T00:18:18;16.20;65.20
41116;DHT22;26861;51.824;4.682;2024-02-28T00:20:44;15.90;64.90
41116;DHT22;26861;51.824;4.682;2024-02-28T00:23:10;15.90;65.30
41116;DHT22;26861;51.824;4.682;2024-02-28T00:25:35;15.80;65.00
41116;DHT22;26861;51.824;4.682;2024-02-28T00:28:01;16.10;65.10
41116;DHT22;26861;51.824;4.682;2024-02-28T00:30:26;15.90;64.70
41116;DHT22;26861;51.824;4.682;2024-02-28T00:32:54;15.60;64.70
41116;DHT22;26861;51.824;4.682;2024-02-28T00:35:19;15.90;65.10
41116;DHT22;26861;51.824;4.682;2024-02-28T00:37:45;15.80;65.10
41116;DHT22;26861;51.824;4.682;2024-02-28T00:40:10;15.90;65.00
41116;DHT22;26861;51.824;4.682;2024-02-28T00:42:36;15.90;63.30
41116;DHT22;26861;51.824;4.682;2024-02-28T00:45:01;15.80;65.10
41116;DHT22;26861;51.824;4.682;2024-02-28T00:47:28;15.80;64.60
41116;DHT22;26861;51.824;4.682;2024-02-28T00:49:53;15.90;65.00
41116;DHT22;26861;51.824;4.682;2024-02-28T00:52:19;15.90;65.10
41116;DHT22;26861;51.824;4.682;2024-02-28T00:54:44;15.90;65.00
41116;DHT22;26861;51.824;4.682;2024-02-28T00:57:10;15.80;64.40
41116;DHT22;26861;51.824;4.682;2024-02-28T00:59:35;15.80;65.00
41116;DHT22;26861;51.824;4.682;2024-02-28T01:02:01;15.90;64.50
41116;DHT22;26861;51.824;4.682;2024-02-28T01:04:26;15.90;64.90
41116;DHT22;26861;51.824;4.682;2024-02-28T01:06:52;15.90;65.20
41116;DHT22;26861;51.824;4.682;2024-02-28T01:09:17;15.90;64.90
41116;DHT22;26861;51.824;4.682;2024-02-28T01:11:43;15.80;65.40
41116;DHT22;26861;51.824;4.682;2024-02-28T01:14:09;15.80;65.10
41116;DHT22;26861;51.824;4.682;2024-02-28T01:16:34;15.60;64.70
41116;DHT22;26861;51.824;4.682;2024-02-28T01:19:00;15.90;64.80
41116;DHT22;26861;51.824;4.682;2024-02-28T01:21:25;15.80;65.10
41116;DHT22;26861;51.824;4.682;2024-02-28T01:23:51;15.90;64.80
41116;DHT22;26861;51.824;4.682;2024-02-28T01:26:16;15.80;64.50
41116;DHT22;26861;51.824;4.682;2024-02-28T01:28:42;15.80;64.70
41116;DHT22;26861;51.824;4.682;2024-02-28T01:31:11;15.90;60.90
41116;DHT22;26861;51.824;4.682;2024-02-28T01:33:36;17.80;65.80
41116;DHT22;26861;51.824;4.682;2024-02-28T01:36:01;15.90;64.60
41116;DHT22;26861;51.824;4.682;2024-02-28T01:38:27;15.90;64.10
41116;DHT22;26861;51.824;4.682;2024-02-28T01:40:53;15.90;64.50
41116;DHT22;26861;51.824;4.682;2024-02-28T01:43:18;15.90;64.70
41116;DHT22;26861;51.824;4.682;2024-02-28T01:45:44;15.90;64.60
41116;DHT22;26861;51.824;4.682;2024-02-28T01:48:09;15.90;64.60
41116;DHT22;26861;51.824;4.682;2024-02-28T01:50:36;15.80;64.70
41116;DHT22;26861;51.824;4.682;2024-02-28T01:53:02;15.80;64.70
41116;DHT22;26861;51.824;4.682;2024-02-28T01:55:28;15.80;64.50
41116;DHT22;26861;51.824;4.682;2024-02-28T01:57:53;15.80;64.50
41116;DHT22;26861;51.824;4.682;2024-02-28T02:00:19;15.80;64.40
41116;DHT22;26861;51.824;4.682;2024-02-28T02:02:46;15.80;64.00
41116;DHT22;26861;51.824;4.682;2024-02-28T02:05:11;15.80;64.50
41116;DHT22;26861;51.824;4.682;2024-02-28T02:07:37;15.80;64.30
41116;DHT22;26861;51.824;4.682;2024-02-28T02:10:04;15.80;64.50
41116;DHT22;26861;51.824;4.682;2024-02-28T02:12:33;15.80;63.70
41116;DHT22;26861;51.824;4.682;2024-02-28T02:14:59;15.80;64.30
41116;DHT22;26861;51.824;4.682;2024-02-28T02:17:24;15.70;64.40
41116;DHT22;26861;51.824;4.682;2024-02-28T02:19:50;15.80;64.40
41116;DHT22;26861;51.824;4.682;2024-02-28T02:22:15;15.70;64.10
41116;DHT22;26861;51.824;4.682;2024-02-28T02:24:42;15.80;63.90
41116;DHT22;26861;51.824;4.682;2024-02-28T02:27:07;15.70;64.80
41116;DHT22;26861;51.824;4.682;2024-02-28T02:29:33;15.70;64.30
41116;DHT22;26861;51.824;4.682;2024-02-28T02:31:58;16.00;64.50
41116;DHT22;26861;51.824;4.682;2024-02-28T02:34:24;15.70;63.30
41116;DHT22;26861;51.824;4.682;2024-02-28T02:36:49;15.70;64.30
41116;DHT22;26861;51.824;4.682;2024-02-28T02:39:15;15.70;64.20
41116;DHT22;26861;51.824;4.682;2024-02-28T02:41:41;15.70;63.60
41116;DHT22;26861;51.824;4.682;2024-02-28T02:44:07;15.70;64.10
41116;DHT22;26861;51.824;4.682;2024-02-28T02:46:32;15.70;64.40
41116;DHT22;26861;51.824;4.682;2024-02-28T02:48:58;15.60;64.10
41116;DHT22;26861;51.824;4.682;2024-02-28T02:51:23;15.60;64.00
41116;DHT22;26861;51.824;4.682;2024-02-28T02:53:49;15.70;63.90
41116;DHT22;26861;51.824;4.682;2024-02-28T02:56:14;15.70;64.20
41116;DHT22;26861;51.824;4.682;2024-02-28T02:58:40;15.80;64.10
41116;DHT22;26861;51.824;4.682;2024-02-28T03:01:05;15.60;65.00
41116;DHT22;26861;51.824;4.682;2024-02-28T03:03:31;15.60;63.70
41116;DHT22;26861;51.824;4.682;2024-02-28T03:05:56;15.60;64.20
41116;DHT22;26861;51.824;4.682;2024-02-28T03:08:22;15.60;64.40
41116;DHT22;26861;51.824;4.682;2024-02-28T03:10:47;15.60;64.10
41116;DHT22;26861;51.824;4.682;2024-02-28T03:13:13;15.60;64.10
41116;DHT22;26861;51.824;4.682;2024-02-28T03:15:38;15.60;64.00
41116;DHT22;26861;51.824;4.682;2024-02-28T03:18:04;15.60;64.40
41116;DHT22;26861;51.824;4.682;2024-02-28T03:20:29;15.50;63.50
41116;DHT22;26861;51.824;4.682;2024-02-28T03:22:55;15.50;63.60
41116;DHT22;26861;51.824;4.682;2024-02-28T03:25:20;15.60;64.30
41116;DHT22;26861;51.824;4.682;2024-02-28T03:27:46;15.50;64.30
41116;DHT22;26861;51.824;4.682;2024-02-28T03:30:11;15.50;64.10
41116;DHT22;26861;51.824;4.682;2024-02-28T03:32:37;15.60;64.10
41116;DHT22;26861;51.824;4.682;2024-02-28T03:35:03;15.50;63.20
41116;DHT22;26861;51.824;4.682;2024-02-28T03:37:29;15.40;63.40
41116;DHT22;26861;51.824;4.682;2024-02-28T03:39:55;15.60;64.60
41116;DHT22;26861;51.824;4.682;2024-02-28T03:42:20;15.50;64.50
41116;DHT22;26861;51.824;4.682;2024-02-28T03:44:46;15.50;64.50
41116;DHT22;26861;51.824;4.682;2024-02-28T03:47:12;15.50;64.60
41116;DHT22;26861;51.824;4.682;2024-02-28T03:49:37;15.50;64.50
41116;DHT22;26861;51.824;4.682;2024-02-28T03:52:03;15.50;64.80
41116;DHT22;26861;51.824;4.682;2024-02-28T03:54:31;15.30;64.10
41116;DHT22;26861;51.824;4.682;2024-02-28T03:56:56;15.50;64.80
41116;DHT22;26861;51.824;4.682;2024-02-28T03:59:22;15.40;64.50
41116;DHT22;26861;51.824;4.682;2024-02-28T04:01:47;15.50;64.40
41116;DHT22;26861;51.824;4.682;2024-02-28T04:04:13;15.50;64.80
41116;DHT22;26861;51.824;4.682;2024-02-28T04:06:38;15.50;64.60
41116;DHT22;26861;51.824;4.682;2024-02-28T04:09:04;15.40;64.70
41116;DHT22;26861;51.824;4.682;2024-02-28T04:11:29;15.40;64.70
41116;DHT22;26861;51.824;4.682;2024-02-28T04:13:55;15.40;64.60
41116;DHT22;26861;51.824;4.682;2024-02-28T04:16:20;15.40;64.60
41116;DHT22;26861;51.824;4.682;2024-02-28T04:18:46;15.50;64.40
41116;DHT22;26861;51.824;4.682;2024-02-28T04:21:11;15.40;64.90
41116;DHT22;26861;51.824;4.682;2024-02-28T04:23:37;15.50;64.80
41116;DHT22;26861;51.824;4.682;2024-02-28T04:26:03;15.40;64.50
41116;DHT22;26861;51.824;4.682;2024-02-28T04:28:29;15.50;64.80
41116;DHT22;26861;51.824;4.682;2024-02-28T04:30:55;15.50;65.00
41116;DHT22;26861;51.824;4.682;2024-02-28T04:33:20;15.40;65.00
41116;DHT22;26861;51.824;4.682;2024-02-28T04:35:46;15.50;64.90
41116;DHT22;26861;51.824;4.682;2024-02-28T04:38:11;15.50;64.80
41116;DHT22;26861;51.824;4.682;2024-02-28T04:40:37;15.40;64.80
41116;DHT22;26861;51.824;4.682;2024-02-28T04:43:02;15.40;64.90
41116;DHT22;26861;51.824;4.682;2024-02-28T04:45:28;15.50;64.40
41116;DHT22;26861;51.824;4.682;2024-02-28T04:47:53;15.40;64.90
41116;DHT22;26861;51.824;4.682;2024-02-28T04:50:20;15.40;64.70
41116;DHT22;26861;51.824;4.682;2024-02-28T04:52:46;15.40;64.90
41116;DHT22;26861;51.824;4.682;2024-02-28T04:55:11;15.50;64.80
41116;DHT22;26861;51.824;4.682;2024-02-28T04:57:37;15.40;64.50
41116;DHT22;26861;51.824;4.682;2024-02-28T05:00:03;15.50;65.00
41116;DHT22;26861;51.824;4.682;2024-02-28T05:02:29;15.50;64.40
41116;DHT22;26861;51.824;4.682;2024-02-28T05:04:54;15.90;64.90
41116;DHT22;26861;51.824;4.682;2024-02-28T05:07:20;15.40;64.80
41116;DHT22;26861;51.824;4.682;2024-02-28T05:09:45;15.50;64.70
41116;DHT22;26861;51.824;4.682;2024-02-28T05:12:11;15.40;64.60
41116;DHT22;26861;51.824;4.682;2024-02-28T05:14:39;15.40;60.90
41116;DHT22;26861;51.824;4.682;2024-02-28T05:17:04;15.50;64.70
41116;DHT22;26861;51.824;4.682;2024-02-28T05:19:30;15.50;64.40
41116;DHT22;26861;51.824;4.682;2024-02-28T05:21:56;15.50;64.80
41116;DHT22;26861;51.824;4.682;2024-02-28T05:24:21;15.50;64.80
41116;DHT22;26861;51.824;4.682;2024-02-28T05:26:47;15.40;64.60
41116;DHT22;26861;51.824;4.682;2024-02-28T05:29:12;15.50;64.70
41116;DHT22;26861;51.824;4.682;2024-02-28T05:31:38;15.40;64.80
41116;DHT22;26861;51.824;4.682;2024-02-28T05:34:03;15.70;64.80
41116;DHT22;26861;51.824;4.682;2024-02-28T05:36:29;15.40;64.50
41116;DHT22;26861;51.824;4.682;2024-02-28T05:38:56;15.50;65.00
41116;DHT22;26861;51.824;4.682;2024-02-28T05:41:22;15.40;64.80
41116;DHT22;26861;51.824;4.682;2024-02-28T05:43:48;15.50;64.60
41116;DHT22;26861;51.824;4.682;2024-02-28T05:46:14;15.40;64.60
41116;DHT22;26861;51.824;4.682;2024-02-28T05:48:43;15.50;64.90
41116;DHT22;26861;51.824;4.682;2024-02-28T05:51:08;15.50;60.10
41116;DHT22;26861;51.824;4.682;2024-02-28T05:53:34;15.50;64.70
41116;DHT22;26861;51.824;4.682;2024-02-28T05:56:06;15.40;61.00
41116;DHT22;26861;51.824;4.682;2024-02-28T05:58:39;15.50;60.10
41116;DHT22;26861;51.824;4.682;2024-02-28T06:01:05;15.60;65.30
41116;DHT22;26861;51.824;4.682;2024-02-28T06:03:30;15.50;64.50
41116;DHT22;26861;51.824;4.682;2024-02-28T06:05:55;15.40;64.80
41116;DHT22;26861;51.824;4.682;2024-02-28T06:08:23;15.40;64.70
41116;DHT22;26861;51.824;4.682;2024-02-28T06:10:50;15.40;61.80
41116;DHT22;26861;51.824;4.682;2024-02-28T06:13:17;15.40;64.80
41116;DHT22;26861;51.824;4.682;2024-02-28T06:15:43;15.50;64.80
41116;DHT22;26861;51.824;4.682;2024-02-28T06:18:08;15.40;65.00
41116;DHT22;26861;51.824;4.682;2024-02-28T06:20:34;15.40;64.90
41116;DHT22;26861;51.824;4.682;2024-02-28T06:23:00;16.00;65.40
41116;DHT22;26861;51.824;4.682;2024-02-28T06:25:25;15.40;64.80
41116;DHT22;26861;51.824;4.682;2024-02-28T06:27:52;15.40;65.00
41116;DHT22;26861;51.824;4.682;2024-02-28T06:30:18;15.60;65.20
41116;DHT22;26861;51.824;4.682;2024-02-28T06:32:44;15.40;65.10
41116;DHT22;26861;51.824;4.682;2024-02-28T06:35:09;15.30;64.90
41116;DHT22;26861;51.824;4.682;2024-02-28T06:37:35;15.30;65.10
41116;DHT22;26861;51.824;4.682;2024-02-28T06:40:02;15.40;64.90
41116;DHT22;26861;51.824;4.682;2024-02-28T06:42:29;15.40;65.20
41116;DHT22;26861;51.824;4.682;2024-02-28T06:44:55;15.40;65.20
41116;DHT22;26861;51.824;4.682;2024-02-28T06:47:20;15.40;65.30
41116;DHT22;26861;51.824;4.682;2024-02-28T06:49:46;15.40;65.20
41116;DHT22;26861;51.824;4.682;2024-02-28T06:52:12;15.40;65.40
41116;DHT22;26861;51.824;4.682;2024-02-28T06:54:38;15.40;65.00
41116;DHT22;26861;51.824;4.682;2024-02-28T06:57:04;15.40;64.70
41116;DHT22;26861;51.824;4.682;2024-02-28T06:59:29;15.40;63.60
41116;DHT22;26861;51.824;4.682;2024-02-28T07:01:55;15.40;64.30
41116;DHT22;26861;51.824;4.682;2024-02-28T07:04:21;15.40;64.80
41116;DHT22;26861;51.824;4.682;2024-02-28T07:06:47;15.30;64.70
41116;DHT22;26861;51.824;4.682;2024-02-28T07:09:13;15.30;65.40
41116;DHT22;26861;51.824;4.682;2024-02-28T07:11:40;15.50;65.00
41116;DHT22;26861;51.824;4.682;2024-02-28T07:14:06;15.30;65.20
41116;DHT22;26861;51.824;4.682;2024-02-28T07:16:32;15.40;65.30
41116;DHT22;26861;51.824;4.682;2024-02-28T07:19:02;15.30;65.20
41116;DHT22;26861;51.824;4.682;2024-02-28T07:21:28;15.70;65.70
41116;DHT22;26861;51.824;4.682;2024-02-28T07:23:55;15.30;65.30
41116;DHT22;26861;51.824;4.682;2024-02-28T07:26:21;15.40;65.40
41116;DHT22;26861;51.824;4.682;2024-02-28T07:28:46;15.40;65.70
41116;DHT22;26861;51.824;4.682;2024-02-28T07:31:16;15.30;62.00
41116;DHT22;26861;51.824;4.682;2024-02-28T07:33:42;15.10;65.20
41116;DHT22;26861;51.824;4.682;2024-02-28T07:36:08;15.40;65.70
41116;DHT22;26861;51.824;4.682;2024-02-28T07:38:34;15.40;65.50
41116;DHT22;26861;51.824;4.682;2024-02-28T07:41:00;15.40;65.50
41116;DHT22;26861;51.824;4.682;2024-02-28T07:43:26;15.40;65.60
41116;DHT22;26861;51.824;4.682;2024-02-28T07:45:52;15.40;65.60
41116;DHT22;26861;51.824;4.682;2024-02-28T07:48:18;15.50;65.50
41116;DHT22;26861;51.824;4.682;2024-02-28T07:50:45;15.40;65.30
41116;DHT22;26861;51.824;4.682;2024-02-28T07:53:12;15.40;65.60
41116;DHT22;26861;51.824;4.682;2024-02-28T07:55:38;15.40;65.60
41116;DHT22;26861;51.824;4.682;2024-02-28T07:58:04;15.50;65.40
41116;DHT22;26861;51.824;4.682;2024-02-28T08:00:32;15.50;65.40
41116;DHT22;26861;51.824;4.682;2024-02-28T08:02:59;15.50;65.00
41116;DHT22;26861;51.824;4.682;2024-02-28T08:05:25;15.70;65.90
41116;DHT22;26861;51.824;4.682;2024-02-28T08:07:51;15.80;65.90
41116;DHT22;26861;51.824;4.682;2024-02-28T08:10:17;15.40;65.30
41116;DHT22;26861;51.824;4.682;2024-02-28T08:12:43;15.50;65.50
41116;DHT22;26861;51.824;4.682;2024-02-28T08:15:09;15.40;65.30
41116;DHT22;26861;51.824;4.682;2024-02-28T08:17:35;15.40;63.80
41116;DHT22;26861;51.824;4.682;2024-02-28T08:20:03;15.40;65.70
41116;DHT22;26861;51.824;4.682;2024-02-28T08:22:30;15.50;65.30
41116;DHT22;26861;51.824;4.682;2024-02-28T08:24:56;15.50;65.30
41116;DHT22;26861;51.824;4.682;2024-02-28T08:27:22;15.50;65.60
41116;DHT22;26861;51.824;4.682;2024-02-28T08:29:49;15.40;65.30
41116;DHT22;26861;51.824;4.682;2024-02-28T08:32:16;15.40;65.40
41116;DHT22;26861;51.824;4.682;2024-02-28T08:34:45;15.40;65.60
41116;DHT22;26861;51.824;4.682;2024-02-28T08:37:15;15.40;60.80
41116;DHT22;26861;51.824;4.682;2024-02-28T08:39:40;15.40;65.40
41116;DHT22;26861;51.824;4.682;2024-02-28T08:42:06;15.50;65.50
41116;DHT22;26861;51.824;4.682;2024-02-28T08:44:32;15.50;65.50
41116;DHT22;26861;51.824;4.682;2024-02-28T08:46:58;15.50;65.30
41116;DHT22;26861;51.824;4.682;2024-02-28T08:49:24;15.50;65.50
41116;DHT22;26861;51.824;4.682;2024-02-28T08:51:50;15.40;65.40
41116;DHT22;26861;51.824;4.682;2024-02-28T08:54:16;15.50;65.60
41116;DHT22;26861;51.824;4.682;2024-02-28T08:56:42;15.50;65.60
41116;DHT22;26861;51.824;4.682;2024-02-28T08:59:08;15.50;65.40
41116;DHT22;26861;51.824;4.682;2024-02-28T09:01:34;15.50;64.90
41116;DHT22;26861;51.824;4.682;2024-02-28T09:04:01;15.50;65.30
41116;DHT22;26861;51.824;4.682;2024-02-28T09:06:27;15.50;65.10
41116;DHT22;26861;51.824;4.682;2024-02-28T09:08:53;15.50;65.40
41116;DHT22;26861;51.824;4.682;2024-02-28T09:11:19;15.50;65.20
41116;DHT22;26861;51.824;4.682;2024-02-28T09:13:45;15.50;65.50
41116;DHT22;26861;51.824;4.682;2024-02-28T09:16:11;15.50;64.80
41116;DHT22;26861;51.824;4.682;2024-02-28T09:18:37;15.60;65.30
41116;DHT22;26861;51.824;4.682;2024-02-28T09:21:04;15.50;65.20
41116;DHT22;26861;51.824;4.682;2024-02-28T09:23:29;15.60;65.10
41116;DHT22;26861;51.824;4.682;2024-02-28T09:25:56;15.60;65.20
41116;DHT22;26861;51.824;4.682;2024-02-28T09:28:23;15.60;65.50
41116;DHT22;26861;51.824;4.682;2024-02-28T09:30:49;15.60;65.60
41116;DHT22;26861;51.824;4.682;2024-02-28T09:33:16;15.80;65.60
41116;DHT22;26861;51.824;4.682;2024-02-28T09:35:45;15.70;65.90
41116;DHT22;26861;51.824;4.682;2024-02-28T09:38:11;15.60;65.90
41116;DHT22;26861;51.824;4.682;2024-02-28T09:40:37;15.70;65.90
41116;DHT22;26861;51.824;4.682;2024-02-28T09:43:04;15.70;65.80
41116;DHT22;26861;51.824;4.682;2024-02-28T09:45:30;15.70;66.10
41116;DHT22;26861;51.824;4.682;2024-02-28T09:47:57;15.70;66.30
41116;DHT22;26861;51.824;4.682;2024-02-28T09:50:24;15.70;66.40
41116;DHT22;26861;51.824;4.682;2024-02-28T09:52:51;15.70;66.40
41116;DHT22;26861;51.824;4.682;2024-02-28T09:55:17;15.70;66.40
41116;DHT22;26861;51.824;4.682;2024-02-28T09:57:43;15.80;66.20
41116;DHT22;26861;51.824;4.682;2024-02-28T10:00:11;15.80;66.70
41116;DHT22;26861;51.824;4.682;2024-02-28T10:02:37;15.90;66.00
41116;DHT22;26861;51.824;4.682;2024-02-28T10:05:05;15.80;66.50
41116;DHT22;26861;51.824;4.682;2024-02-28T10:07:32;15.80;65.20
41116;DHT22;26861;51.824;4.682;2024-02-28T10:09:58;15.90;66.50
41116;DHT22;26861;51.824;4.682;2024-02-28T10:12:24;15.90;65.80
41116;DHT22;26861;51.824;4.682;2024-02-28T10:14:51;15.90;66.10
41116;DHT22;26861;51.824;4.682;2024-02-28T10:17:17;15.90;66.30
41116;DHT22;26861;51.824;4.682;2024-02-28T10:19:43;15.90;66.40
41116;DHT22;26861;51.824;4.682;2024-02-28T10:22:08;15.90;66.20
41116;DHT22;26861;51.824;4.682;2024-02-28T10:24:34;16.00;66.30
41116;DHT22;26861;51.824;4.682;2024-02-28T10:27:01;16.10;66.20
41116;DHT22;26861;51.824;4.682;2024-02-28T10:29:27;16.10;66.50
41116;DHT22;26861;51.824;4.682;2024-02-28T10:31:57;16.10;66.00
41116;DHT22;26861;51.824;4.682;2024-02-28T10:34:23;16.10;61.80
41116;DHT22;26861;51.824;4.682;2024-02-28T10:36:49;16.20;65.90
41116;DHT22;26861;51.824;4.682;2024-02-28T10:39:15;16.40;65.90
41116;DHT22;26861;51.824;4.682;2024-02-28T10:41:41;16.20;66.00
41116;DHT22;26861;51.824;4.682;2024-02-28T10:44:11;16.30;66.00
41116;DHT22;26861;51.824;4.682;2024-02-28T10:46:38;16.40;61.20
41116;DHT22;26861;51.824;4.682;2024-02-28T10:49:05;16.50;65.60
41116;DHT22;26861;51.824;4.682;2024-02-28T10:51:33;16.40;65.70
41116;DHT22;26861;51.824;4.682;2024-02-28T10:54:09;16.50;65.70
41116;DHT22;26861;51.824;4.682;2024-02-28T10:56:55;16.50;60.80
41116;DHT22;26861;51.824;4.682;2024-02-28T10:59:21;16.60;65.20
41116;DHT22;26861;51.824;4.682;2024-02-28T11:01:48;16.70;64.80
41116;DHT22;26861;51.824;4.682;2024-02-28T11:04:15;16.80;65.10
41116;DHT22;26861;51.824;4.682;2024-02-28T11:06:51;16.70;65.40
41116;DHT22;26861;51.824;4.682;2024-02-28T11:09:21;16.90;60.90
41116;DHT22;26861;51.824;4.682;2024-02-28T11:11:51;16.90;60.70
41116;DHT22;26861;51.824;4.682;2024-02-28T11:14:18;16.80;65.10
41116;DHT22;26861;51.824;4.682;2024-02-28T11:16:48;16.80;65.00
41116;DHT22;26861;51.824;4.682;2024-02-28T11:19:20;16.80;65.00
41116;DHT22;26861;51.824;4.682;2024-02-28T11:21:53;16.90;60.50
41116;DHT22;26861;51.824;4.682;2024-02-28T11:24:22;16.90;60.70
41116;DHT22;26861;51.824;4.682;2024-02-28T11:26:51;16.90;65.30
41116;DHT22;26861;51.824;4.682;2024-02-28T11:29:21;16.90;65.80
41116;DHT22;26861;51.824;4.682;2024-02-28T11:31:47;16.90;65.70
41116;DHT22;26861;51.824;4.682;2024-02-28T11:34:13;17.00;65.90
41116;DHT22;26861;51.824;4.682;2024-02-28T11:36:40;16.80;65.80
41116;DHT22;26861;51.824;4.682;2024-02-28T11:39:06;17.10;66.50
41116;DHT22;26861;51.824;4.682;2024-02-28T11:41:32;16.70;66.20
41116;DHT22;26861;51.824;4.682;2024-02-28T11:43:58;16.70;66.10
41116;DHT22;26861;51.824;4.682;2024-02-28T11:46:24;16.70;66.50
41116;DHT22;26861;51.824;4.682;2024-02-28T11:48:50;16.70;66.30
41116;DHT22;26861;51.824;4.682;2024-02-28T11:51:16;16.70;66.20
41116;DHT22;26861;51.824;4.682;2024-02-28T11:53:42;16.70;66.40
41116;DHT22;26861;51.824;4.682;2024-02-28T11:56:08;16.70;66.20
41116;DHT22;26861;51.824;4.682;2024-02-28T11:58:34;16.70;66.50
41116;DHT22;26861;51.824;4.682;2024-02-28T12:01:00;16.80;66.40
41116;DHT22;26861;51.824;4.682;2024-02-28T12:03:26;16.80;66.20
41116;DHT22;26861;51.824;4.682;2024-02-28T12:05:52;16.70;66.40
41116;DHT22;26861;51.824;4.682;2024-02-28T12:08:19;16.70;66.70
41116;DHT22;26861;51.824;4.682;2024-02-28T12:10:45;16.70;67.20
41116;DHT22;26861;51.824;4.682;2024-02-28T12:13:15;16.70;66.60
41116;DHT22;26861;51.824;4.682;2024-02-28T12:15:41;16.80;66.90
41116;DHT22;26861;51.824;4.682;2024-02-28T12:18:07;16.80;66.40
41116;DHT22;26861;51.824;4.682;2024-02-28T12:20:34;16.70;66.50
41116;DHT22;26861;51.824;4.682;2024-02-28T12:23:00;16.50;66.20
41116;DHT22;26861;51.824;4.682;2024-02-28T12:25:26;16.70;66.80
41116;DHT22;26861;51.824;4.682;2024-02-28T12:27:52;16.80;66.70
41116;DHT22;26861;51.824;4.682;2024-02-28T12:30:18;16.80;67.00
41116;DHT22;26861;51.824;4.682;2024-02-28T12:32:44;16.70;66.90
41116;DHT22;26861;51.824;4.682;2024-02-28T12:35:10;16.70;66.80
41116;DHT22;26861;51.824;4.682;2024-02-28T12:37:36;16.70;66.90
41116;DHT22;26861;51.824;4.682;2024-02-28T12:40:01;16.70;66.90
41116;DHT22;26861;51.824;4.682;2024-02-28T12:42:30;16.70;66.40
41116;DHT22;26861;51.824;4.682;2024-02-28T12:44:56;16.70;66.90
41116;DHT22;26861;51.824;4.682;2024-02-28T12:47:22;16.70;66.60
41116;DHT22;26861;51.824;4.682;2024-02-28T12:49:48;16.70;66.80
41116;DHT22;26861;51.824;4.682;2024-02-28T12:52:14;16.70;66.70
41116;DHT22;26861;51.824;4.682;2024-02-28T12:54:40;16.70;66.80
41116;DHT22;26861;51.824;4.682;2024-02-28T12:57:06;16.80;66.70
41116;DHT22;26861;51.824;4.682;2024-02-28T12:59:34;16.70;66.50
41116;DHT22;26861;51.824;4.682;2024-02-28T13:02:00;16.80;66.40
41116;DHT22;26861;51.824;4.682;2024-02-28T13:04:26;16.70;66.60
41116;DHT22;26861;51.824;4.682;2024-02-28T13:06:54;16.70;66.80
41116;DHT22;26861;51.824;4.682;2024-02-28T13:09:19;16.70;66.80
41116;DHT22;26861;51.824;4.682;2024-02-28T13:11:48;16.70;66.50
41116;DHT22;26861;51.824;4.682;2024-02-28T13:14:14;17.10;66.80
41116;DHT22;26861;51.824;4.682;2024-02-28T13:16:39;16.70;66.40
41116;DHT22;26861;51.824;4.682;2024-02-28T13:19:05;16.70;66.50
41116;DHT22;26861;51.824;4.682;2024-02-28T13:21:31;16.70;66.40
41116;DHT22;26861;51.824;4.682;2024-02-28T13:23:58;16.80;66.60
41116;DHT22;26861;51.824;4.682;2024-02-28T13:26:24;16.80;66.40
41116;DHT22;26861;51.824;4.682;2024-02-28T13:28:49;16.70;66.60
41116;DHT22;26861;51.824;4.682;2024-02-28T13:31:15;16.70;66.50
41116;DHT22;26861;51.824;4.682;2024-02-28T13:33:41;17.10;66.10
41116;DHT22;26861;51.824;4.682;2024-02-28T13:36:07;16.70;66.50
41116;DHT22;26861;51.824;4.682;2024-02-28T13:38:32;16.70;66.20
41116;DHT22;26861;51.824;4.682;2024-02-28T13:40:58;16.70;66.50
41116;DHT22;26861;51.824;4.682;2024-02-28T13:43:25;16.60;66.20
41116;DHT22;26861;51.824;4.682;2024-02-28T13:45:51;16.70;66.50
41116;DHT22;26861;51.824;4.682;2024-02-28T13:50:43;15.70;65.80
41116;DHT22;26861;51.824;4.682;2024-02-28T13:53:09;16.80;66.80
41116;DHT22;26861;51.824;4.682;2024-02-28T13:55:35;16.70;66.10
41116;DHT22;26861;51.824;4.682;2024-02-28T13:58:01;17.00;66.40
41116;DHT22;26861;51.824;4.682;2024-02-28T14:00:27;16.70;66.20
41116;DHT22;26861;51.824;4.682;2024-02-28T14:02:53;16.50;65.70
41116;DHT22;26861;51.824;4.682;2024-02-28T14:05:19;16.80;66.50
41116;DHT22;26861;51.824;4.682;2024-02-28T14:07:44;16.70;66.00
41116;DHT22;26861;51.824;4.682;2024-02-28T14:10:10;16.70;66.20
41116;DHT22;26861;51.824;4.682;2024-02-28T14:12:37;16.60;66.00
41116;DHT22;26861;51.824;4.682;2024-02-28T14:15:04;16.60;66.40
41116;DHT22;26861;51.824;4.682;2024-02-28T14:17:31;16.40;64.70
41116;DHT22;26861;51.824;4.682;2024-02-28T14:19:57;16.60;65.90
41116;DHT22;26861;51.824;4.682;2024-02-28T14:22:23;16.60;66.00
41116;DHT22;26861;51.824;4.682;2024-02-28T14:24:49;16.40;65.70
41116;DHT22;26861;51.824;4.682;2024-02-28T14:27:15;16.70;66.10
41116;DHT22;26861;51.824;4.682;2024-02-28T14:29:42;16.60;65.90
41116;DHT22;26861;51.824;4.682;2024-02-28T14:32:07;16.60;66.10
41116;DHT22;26861;51.824;4.682;2024-02-28T14:34:33;16.60;65.90
41116;DHT22;26861;51.824;4.682;2024-02-28T14:36:59;16.60;65.90
41116;DHT22;26861;51.824;4.682;2024-02-28T14:39:24;16.70;66.00
41116;DHT22;26861;51.824;4.682;2024-02-28T14:41:50;16.60;65.70
41116;DHT22;26861;51.824;4.682;2024-02-28T14:44:15;16.60;65.70
41116;DHT22;26861;51.824;4.682;2024-02-28T14:46:42;16.60;65.50
41116;DHT22;26861;51.824;4.682;2024-02-28T14:49:08;16.60;65.80
41116;DHT22;26861;51.824;4.682;2024-02-28T14:51:34;16.60;66.20
41116;DHT22;26861;51.824;4.682;2024-02-28T14:54:00;19.20;67.00
41116;DHT22;26861;51.824;4.682;2024-02-28T14:56:25;16.50;65.50
41116;DHT22;26861;51.824;4.682;2024-02-28T14:58:54;16.60;65.20
41116;DHT22;26861;51.824;4.682;2024-02-28T15:01:19;16.40;64.90
41116;DHT22;26861;51.824;4.682;2024-02-28T15:03:45;16.50;65.60
41116;DHT22;26861;51.824;4.682;2024-02-28T15:06:13;16.50;65.40
41116;DHT22;26861;51.824;4.682;2024-02-28T15:08:39;16.70;65.50
41116;DHT22;26861;51.824;4.682;2024-02-28T15:11:04;16.30;65.40
41116;DHT22;26861;51.824;4.682;2024-02-28T15:13:30;16.60;65.30
41116;DHT22;26861;51.824;4.682;2024-02-28T15:15:55;16.60;65.80
41116;DHT22;26861;51.824;4.682;2024-02-28T15:18:21;16.50;65.70
41116;DHT22;26861;51.824;4.682;2024-02-28T15:20:48;16.50;65.80
41116;DHT22;26861;51.824;4.682;2024-02-28T15:23:13;16.50;65.50
41116;DHT22;26861;51.824;4.682;2024-02-28T15:25:39;16.50;65.70